Friday, March 06, 2015
02:26 UTC
  |  Log In   |  Register Free
Airport Search:

Northeast Philadelphia Airport
(KPNE)

FAA data valid effective March 05, 2015 - April 30, 2015 (unless otherwise noted).

 
 
 
 
 
 
 
 
 
 
 
 
 
 

Current Aviation Weather for Northeast Philadelphia Airport (KPNE)

The most recent METAR observation for KPNE was updated at: 0220
METAR Summary (Translated METAR)
KPNE
060154Z 33008KT 10SM OVC085 M06/M11 A3035 RMK AO2 UPB00E48 SLP279 P0000 T10561111
KVAY
060154Z AUTO 31004KT 10SM OVC085 M07/M11 A3034 RMK AO2 SNB24E43 SLP275 P0000 T10671111
(11.3 nm SE from KPNE)
KLOM
060155Z AUTO 00000KT 10SM CLR M06/M09 A3034 RMK AO1
(12.2 nm NW from KPNE)
TAF Summary (Translated TAF)
KPNE
052148Z 0522/0618 33010KT 1/2SM SN VV012 FM052230 33010KT 2SM -SN OVC020 FM052330 33010KT P6SM OVC025 FM060100 32007KT P6SM BKN100
  Airport Weather Conditions for KPNE

 Current Weather at PNE
22° F
Overcast
Northwest winds at 9.2 mph
PNE NOAA Radar

Pressure: 30.35 in
Humidity: 66%
Wind: Northwest at 9.2 MPH (8 KT)
Dew Point: 12.0°F
Visibility: 10.00 mi


Airport Weather Forecast for KPNE

Translated METAR and TAF for KPNE
Translated METAR for KPNE (0226 UTC 06 March 2015)
found at http://aviationweather.gov/adds/metars/
 
METAR text: KPNE 060154Z 33008KT 10SM OVC085 M06/M11 A3035 RMK AO2 UPB00E48 SLP279 P0000 T10561111
Conditions at: KPNE (PHILADELPHIA/NE , PA, US) observed 0154 UTC 06 March 2015
Temperature: -5.6°C (22°F)
Dewpoint: -11.1°C (12°F) [RH = 65%]
Pressure (altimeter): 30.35 inches Hg (1027.9 mb)
[Sea-level pressure: 1027.9 mb]
Winds: from the NNW (330 degrees) at 9 MPH (8 knots; 4.2 m/s)
Visibility: 10 or more miles (16+ km)
Ceiling: 8500 feet AGL
Clouds: overcast cloud deck at 8500 feet AGL
Weather: no significant weather observed at this time
Translated TAF for KPNE
Forecast for: KPNE (PHILADELPHIA/NE , PA, US)
TAF Text: KPNE 052336Z 0600/0624 33009KT P6SM VCSH SCT040 OVC090
Forecast period: 0000 to 0400 UTC 06 March 2015
Forecast type: FROM: standard forecast or significant change
Winds: from the NNW (330 degrees) at 10 MPH (9 knots; 4.7 m/s)
Visibility: 6 or more miles (10+ km)
Ceiling: 9000 feet AGL
Clouds: scattered clouds at 4000 feet AGL
overcast cloud deck at 9000 feet AGL
Weather: VCSH  (showers in vicinity)
TAF Text: FM060400 33009KT P6SM SKC
Forecast period: 0400 to 2100 UTC 06 March 2015
Forecast type: FROM: standard forecast or significant change
Winds: from the NNW (330 degrees) at 10 MPH (9 knots; 4.7 m/s)
Visibility: 6 or more miles (10+ km)
Clouds: clear skies
Weather: no significant weather forecast for this period
TAF Text: FM062100 27005KT P6SM SCT200
Forecast period: 2100 UTC 06 March 2015 to 0000 UTC 07 March 2015
Forecast type: FROM: standard forecast or significant change
Winds: from the W (270 degrees) at 6 MPH (5 knots; 2.6 m/s)
Visibility: 6 or more miles (10+ km)
Clouds: scattered clouds at 20000 feet AGL
Weather: no significant weather forecast for this period

Find All Airport Services Find A Hotel Find A Rental Car Find A Golf Course Find A Restaurant $100 Hamburger



FBO's on the Field
FBO Company Facility Photos Services Transportation Aviation Fuel Prices: Prices include tax
Catering Weather Repair Courtesy Rental Type 100LL JetA JetA+ MOGAS 8087
 
Atlantic Aviation

This FBO has not yet been rated
FS:Independent
Last Updated: Mar-05
Login to update fuel prices
SS:
Contact Atlantic AviationMore FBO Information
 
North Philadelphia Jet Center

Currently rated 5 by 2 people
FS:Avfuel
Last Updated: Feb-24
Login to update fuel prices
SS:
Contact North Philadelphia Jet CenterMore FBO Information
 
Add another FBO Facility Photos Catering Weather Repair Courtesy Rental Type 100LL JetA JetA+ MOGAS 8087
Services Transportation Aviation Fuel Prices: Prices include tax


model-print
model-print
model-print
model-print